Time;durP1;ratioP1;P1;durP2;ratioP2;P2;SDS_P1;SDS_P2;PMS_P1;PMS_P2;Temp;Humidity;BMP_temperature;BMP_pressure;BME280_temperature;BME280_humidity;BME280_pressure;Samples;Min_cycle;Max_cycle;Signal;HPM_P1;HPM_P2
2021/12/04 00:00:46;;;;;;;127.43;46.33;;;4.30;99.90;;;;;;4999965;28;20053;-49
2021/12/04 00:03:12;;;;;;;;;;;4.30;99.90;;;;;;4979856;28;20061;-50
2021/12/04 00:05:41;;;;;;;127.88;43.00;;;4.20;99.90;;;;;;4983329;28;19931;-49
2021/12/04 00:08:07;;;;;;;137.75;47.90;;;4.30;99.90;;;;;;5001502;28;20080;-52
2021/12/04 00:10:33;;;;;;;135.07;47.65;;;4.20;99.90;;;;;;5002457;28;20175;-48
2021/12/04 00:12:59;;;;;;;141.63;48.50;;;4.20;99.90;;;;;;5000280;28;20111;-50
2021/12/04 00:15:25;;;;;;;152.25;48.40;;;4.20;99.90;;;;;;4992965;28;20551;-48
2021/12/04 00:17:51;;;;;;;148.90;47.97;;;4.20;99.90;;;;;;5002305;28;20053;-49
2021/12/04 00:20:16;;;;;;;132.15;46.05;;;4.20;99.90;;;;;;5020197;28;20061;-50
2021/12/04 00:22:42;;;;;;;152.85;49.70;;;4.20;99.90;;;;;;5020682;28;20084;-47
2021/12/04 00:25:09;;;;;;;139.57;46.95;;;4.20;99.90;;;;;;5021392;28;20053;-49
2021/12/04 00:27:35;;;;;;;151.85;48.63;;;4.20;99.90;;;;;;5022255;28;20050;-50
2021/12/04 00:30:01;;;;;;;164.52;47.92;;;4.20;99.90;;;;;;5003479;28;20131;-50
2021/12/04 00:32:33;;;;;;;154.85;49.50;;;4.20;99.90;;;;;;5021864;28;20124;-52
2021/12/04 00:38:08;;;;;;;168.50;47.92;;;4.20;99.90;;;;;;4997451;28;20057;-50
2021/12/04 00:51:12;;;;;;;184.63;50.97;;;4.20;99.90;;;;;;5002931;28;20057;-48
2021/12/04 00:53:38;;;;;;;184.05;51.10;;;4.20;99.90;;;;;;5001620;28;20107;-50
2021/12/04 00:56:04;;;;;;;185.07;50.25;;;4.20;99.90;;;;;;5001501;28;20065;-48
2021/12/04 00:58:30;;;;;;;182.60;47.97;;;4.10;99.90;;;;;;5001921;28;20085;-50
2021/12/04 01:00:57;;;;;;;183.63;49.53;;;4.10;99.90;;;;;;4999821;28;20064;-49
2021/12/04 01:03:23;;;;;;;187.30;49.53;;;4.10;99.90;;;;;;5000503;28;20042;-49
2021/12/04 01:05:49;;;;;;;208.98;51.65;;;4.10;99.90;;;;;;4999835;28;20108;-48
2021/12/04 01:08:14;;;;;;;186.68;49.58;;;4.10;99.90;;;;;;5001160;28;20717;-48
2021/12/04 01:10:41;;;;;;;190.32;49.97;;;4.10;99.90;;;;;;4998679;28;20046;-52
2021/12/04 01:13:11;;;;;;;218.90;51.50;;;4.10;99.90;;;;;;4999436;28;20042;-48
2021/12/04 01:15:38;;;;;;;183.07;48.45;;;4.10;99.90;;;;;;5019372;28;20439;-51
2021/12/04 01:18:04;;;;;;;188.40;49.08;;;4.20;99.90;;;;;;5022290;28;20134;-49
2021/12/04 01:20:30;;;;;;;176.38;49.58;;;4.20;99.90;;;;;;5024024;28;20529;-48
2021/12/04 01:22:56;;;;;;;193.90;50.75;;;4.10;99.90;;;;;;5021980;28;20067;-50
2021/12/04 01:25:21;;;;;;;205.98;52.40;;;4.20;99.90;;;;;;5025263;28;20128;-48
2021/12/04 01:27:47;;;;;;;217.25;51.65;;;4.20;99.90;;;;;;5019126;28;20116;-48
2021/12/04 01:30:13;;;;;;;212.52;52.67;;;4.20;99.90;;;;;;5025763;28;20129;-49
2021/12/04 01:32:39;;;;;;;235.20;54.38;;;4.20;99.90;;;;;;5023664;28;20045;-48
2021/12/04 01:35:05;;;;;;;207.70;51.88;;;4.20;99.90;;;;;;5024585;28;20104;-49
2021/12/04 01:37:31;;;;;;;190.85;49.28;;;4.20;99.90;;;;;;5024877;28;20049;-49
2021/12/04 01:39:56;;;;;;;207.88;49.60;;;4.10;99.90;;;;;;5023300;28;20099;-49
2021/12/04 01:42:22;;;;;;;201.55;51.17;;;4.20;99.90;;;;;;5003312;28;20488;-50
2021/12/04 01:44:49;;;;;;;188.35;51.35;;;4.20;99.90;;;;;;5005869;28;20551;-49
2021/12/04 01:47:19;;;;;;;201.40;51.03;;;4.10;99.90;;;;;;5021726;28;20046;-52
2021/12/04 01:49:45;;;;;;;200.75;50.67;;;4.10;99.90;;;;;;5024786;28;20069;-52
2021/12/04 01:52:11;;;;;;;194.65;50.90;;;4.10;99.90;;;;;;5004685;28;20397;-50
2021/12/04 01:54:37;;;;;;;169.18;48.08;;;4.10;99.90;;;;;;5022127;28;20053;-50
2021/12/04 01:57:03;;;;;;;153.20;43.85;;;4.10;99.90;;;;;;5005322;28;20064;-48
2021/12/04 01:59:30;;;;;;;165.07;47.97;;;4.10;99.90;;;;;;5005574;28;20079;-52
2021/12/04 02:01:58;;;;;;;139.90;44.50;;;4.10;99.90;;;;;;5023184;28;20049;-50
2021/12/04 02:04:24;;;;;;;122.95;41.85;;;4.20;99.90;;;;;;5015465;28;20062;-48
2021/12/04 02:06:50;;;;;;;122.60;41.67;;;4.20;99.90;;;;;;5023762;28;20084;-48
2021/12/04 02:09:16;;;;;;;124.63;40.42;;;4.10;99.90;;;;;;5023626;28;20051;-48
2021/12/04 02:11:41;;;;;;;116.60;41.33;;;4.10;99.90;;;;;;5022040;28;20128;-48
2021/12/04 02:14:07;;;;;;;113.25;38.78;;;4.20;99.90;;;;;;5023391;28;20049;-50
2021/12/04 02:16:33;;;;;;;115.82;38.88;;;4.10;99.90;;;;;;5020013;28;20096;-49
2021/12/04 02:18:59;;;;;;;123.43;39.13;;;4.20;99.90;;;;;;5023089;28;20135;-49
2021/12/04 02:21:26;;;;;;;98.47;36.90;;;4.10;99.90;;;;;;5020137;28;20423;-48
2021/12/04 02:23:53;;;;;;;104.05;37.22;;;4.20;99.90;;;;;;5004683;28;20049;-49
2021/12/04 02:26:19;;;;;;;96.88;36.33;;;4.10;99.90;;;;;;5004553;28;20052;-49
2021/12/04 02:28:47;;;;;;;95.05;35.97;;;4.10;99.90;;;;;;5023583;28;20052;-51
2021/12/04 02:31:12;;;;;;;95.28;33.83;;;4.20;99.90;;;;;;5001313;28;20050;-49
2021/12/04 02:33:38;;;;;;;101.55;34.70;;;4.10;99.90;;;;;;5009350;28;20057;-49
2021/12/04 02:36:06;;;;;;;100.88;35.35;;;4.20;99.90;;;;;;5019845;28;20397;-51
2021/12/04 02:38:33;;;;;;;92.97;36.30;;;4.10;99.90;;;;;;5007876;28;20053;-49
2021/12/04 02:41:00;;;;;;;89.53;33.13;;;4.20;99.90;;;;;;5016195;28;20089;-48
2021/12/04 02:43:27;;;;;;;83.05;33.03;;;4.20;99.90;;;;;;5022902;28;20499;-48
2021/12/04 02:45:53;;;;;;;87.00;32.40;;;4.10;99.90;;;;;;5023221;28;20067;-49
2021/12/04 02:48:19;;;;;;;84.15;32.97;;;4.10;99.90;;;;;;5013211;28;20488;-49
2021/12/04 02:50:46;;;;;;;95.60;32.55;;;4.10;99.90;;;;;;5024204;28;20087;-49
2021/12/04 02:53:12;;;;;;;72.10;30.45;;;4.10;99.90;;;;;;5023821;28;20146;-51
2021/12/04 02:55:39;;;;;;;94.78;34.22;;;4.10;99.90;;;;;;5024662;28;20124;-48
2021/12/04 02:58:04;;;;;;;79.82;32.20;;;4.10;99.90;;;;;;5025813;28;20084;-51
2021/12/04 03:00:31;;;;;;;94.32;33.10;;;4.10;99.90;;;;;;5027455;28;20168;-49
2021/12/04 03:02:57;;;;;;;85.68;32.63;;;4.10;99.90;;;;;;5025466;28;20053;-48
2021/12/04 03:05:26;;;;;;;85.78;30.90;;;4.10;99.90;;;;;;5024098;28;20111;-52
2021/12/04 03:07:54;;;;;;;89.43;32.10;;;4.10;99.90;;;;;;5023596;28;20049;-51
2021/12/04 03:10:21;;;;;;;100.45;33.03;;;4.10;99.90;;;;;;5012181;28;20064;-51
2021/12/04 03:12:48;;;;;;;103.20;34.58;;;4.10;99.90;;;;;;4994758;28;20061;-48
2021/12/04 03:15:15;;;;;;;96.38;32.92;;;4.20;99.90;;;;;;4995088;28;20062;-48
2021/12/04 03:17:41;;;;;;;103.05;31.52;;;4.10;99.90;;;;;;5003868;28;20131;-49
2021/12/04 03:20:07;;;;;;;103.95;34.15;;;4.20;99.90;;;;;;5006626;28;20057;-49
2021/12/04 03:22:33;;;;;;;112.35;33.97;;;4.10;99.90;;;;;;4990060;28;20058;-48
2021/12/04 03:24:59;;;;;;;95.68;31.25;;;4.10;99.90;;;;;;5003001;28;20045;-48
2021/12/04 03:27:28;;;;;;;104.90;33.67;;;4.20;99.90;;;;;;5019390;28;20574;-48
2021/12/04 03:30:07;;;;;;;93.68;31.83;;;4.10;99.90;;;;;;5017087;28;20409;-48
2021/12/04 03:40:59;;;;;;;112.63;33.50;;;4.10;99.90;;;;;;4932060;29;20078;-48
2021/12/04 03:43:25;;;;;;;111.88;32.80;;;4.10;99.90;;;;;;4934936;29;20174;-50
2021/12/04 03:45:59;;;;;;;114.35;35.17;;;4.10;99.90;;;;;;4927003;29;20052;-50
2021/12/04 03:50:58;;;;;;;124.47;34.25;;;4.10;99.90;;;;;;4924584;29;19927;-49
2021/12/04 03:53:30;;;;;;;139.70;34.63;;;4.10;99.90;;;;;;4936836;29;20106;-49
2021/12/04 03:55:56;;;;;;;126.38;37.38;;;4.20;99.90;;;;;;4941686;29;20059;-50
2021/12/04 03:58:22;;;;;;;131.57;34.08;;;4.20;99.90;;;;;;4930987;29;20056;-50
2021/12/04 04:00:48;;;;;;;129.23;33.55;;;4.10;99.90;;;;;;4924527;29;20122;-50
2021/12/04 04:03:15;;;;;;;126.40;35.22;;;4.10;99.90;;;;;;4929120;29;20108;-51
2021/12/04 04:05:41;;;;;;;126.85;34.13;;;4.20;99.90;;;;;;4935051;29;20054;-52
2021/12/04 04:08:09;;;;;;;120.18;33.47;;;4.20;99.90;;;;;;4927363;29;20063;-50
2021/12/04 04:10:34;;;;;;;125.47;35.88;;;4.20;99.90;;;;;;4934108;29;20051;-50
2021/12/04 04:13:00;;;;;;;116.25;32.55;;;4.10;99.90;;;;;;4925046;29;20541;-52
2021/12/04 04:15:26;;;;;;;128.52;35.17;;;4.10;99.90;;;;;;4971690;28;20095;-49
2021/12/04 04:17:52;;;;;;;104.50;32.60;;;4.20;99.90;;;;;;5012552;28;20416;-51
2021/12/04 04:20:21;;;;;;;119.55;33.35;;;4.20;99.90;;;;;;5013978;28;20089;-47
2021/12/04 04:22:48;;;;;;;125.45;34.70;;;4.20;99.90;;;;;;5007553;28;20157;-51
2021/12/04 04:25:15;;;;;;;123.60;34.47;;;4.20;99.90;;;;;;5022042;28;20583;-49
2021/12/04 04:27:42;;;;;;;127.72;34.67;;;4.20;99.90;;;;;;5000087;28;20481;-49
2021/12/04 04:30:15;;;;;;;122.82;34.70;;;4.20;99.90;;;;;;5005487;28;20448;-49
2021/12/04 04:32:41;;;;;;;137.40;34.88;;;4.20;99.90;;;;;;5017853;28;20044;-48
2021/12/04 04:35:10;;;;;;;127.60;35.05;;;4.20;99.90;;;;;;5012366;28;20042;-49
2021/12/04 05:02:16;;;;;;;127.45;34.05;;;4.20;99.90;;;;;;4956868;28;20494;-48
2021/12/04 05:12:58;;;;;;;123.70;32.42;;;4.20;99.90;;;;;;4958838;28;20536;-49
2021/12/04 05:15:42;;;;;;;117.10;31.52;;;4.20;99.90;;;;;;4952561;28;20066;-48
2021/12/04 05:20:48;;;;;;;146.38;34.40;;;4.20;99.90;;;;;;4969252;28;20063;-50
2021/12/04 05:23:13;;;;;;;128.57;30.67;;;4.20;99.90;;;;;;4967121;28;20058;-50
2021/12/04 05:25:39;;;;;;;120.78;31.63;;;4.20;99.90;;;;;;4978178;28;20312;-51
2021/12/04 05:28:07;;;;;;;120.55;32.67;;;4.20;99.90;;;;;;4978821;28;20894;-50
2021/12/04 05:30:33;;;;;;;132.60;33.28;;;4.20;99.90;;;;;;4976198;28;20133;-50
2021/12/04 05:32:59;;;;;;;121.53;32.53;;;4.20;99.90;;;;;;5006197;28;20140;-50
2021/12/04 05:35:26;;;;;;;129.38;32.60;;;4.20;99.90;;;;;;5017237;28;20108;-48
2021/12/04 05:37:52;;;;;;;122.30;31.77;;;4.20;99.90;;;;;;5014806;28;20121;-49
2021/12/04 05:40:18;;;;;;;135.63;31.77;;;4.20;99.90;;;;;;5007438;28;20485;-50
2021/12/04 05:42:44;;;;;;;129.82;32.55;;;4.20;99.90;;;;;;5022509;28;20547;-50
2021/12/04 05:45:23;;;;;;;113.65;30.15;;;4.20;99.90;;;;;;5024138;28;20500;-49
2021/12/04 05:48:06;;;;;;;151.73;33.83;;;4.20;99.90;;;;;;5024579;28;20050;-48
2021/12/04 05:53:18;;;;;;;136.48;31.33;;;4.20;99.90;;;;;;5013733;28;20053;-48
2021/12/04 05:55:52;;;;;;;161.05;33.80;;;4.20;99.90;;;;;;5011198;28;20087;-48
2021/12/04 05:58:25;;;;;;;120.22;30.90;;;4.20;99.90;;;;;;5011074;28;20267;-48
2021/12/04 06:00:51;;;;;;;123.72;31.33;;;4.20;99.90;;;;;;5006180;28;20081;-52
2021/12/04 06:03:17;;;;;;;118.88;31.92;;;4.20;99.90;;;;;;5020583;28;20088;-49
2021/12/04 06:05:44;;;;;;;140.23;31.08;;;4.20;99.90;;;;;;5004785;28;20042;-49
2021/12/04 06:08:12;;;;;;;142.98;31.98;;;4.20;99.90;;;;;;5016158;28;20049;-48
2021/12/04 06:10:39;;;;;;;133.50;31.83;;;4.20;99.90;;;;;;5023311;28;20049;-49
2021/12/04 06:13:05;;;;;;;131.90;31.52;;;4.20;99.90;;;;;;5017739;28;20084;-51
2021/12/04 06:15:32;;;;;;;137.60;32.67;;;4.20;99.90;;;;;;5015371;28;20132;-52
2021/12/04 06:17:57;;;;;;;170.60;33.67;;;4.20;99.90;;;;;;5021131;28;20042;-49
2021/12/04 06:23:09;;;;;;;175.32;35.30;;;4.20;99.90;;;;;;5024330;28;20042;-50
2021/12/04 06:25:35;;;;;;;135.27;31.50;;;4.20;99.90;;;;;;5014566;28;20060;-50
2021/12/04 06:28:01;;;;;;;152.93;32.25;;;4.20;99.90;;;;;;5025478;28;20129;-50
2021/12/04 06:30:28;;;;;;;136.95;31.05;;;4.20;99.90;;;;;;5024804;28;20080;-56
2021/12/04 06:32:55;;;;;;;154.77;32.35;;;4.20;99.90;;;;;;5020510;28;20058;-53
2021/12/04 06:35:23;;;;;;;145.73;31.50;;;4.20;99.90;;;;;;5010155;28;20092;-49
2021/12/04 06:37:49;;;;;;;170.07;32.97;;;4.20;99.90;;;;;;5008288;28;20505;-48
2021/12/04 06:40:18;;;;;;;164.10;32.55;;;4.20;99.90;;;;;;4999249;28;20041;-49
2021/12/04 06:42:45;;;;;;;146.40;29.60;;;4.20;99.90;;;;;;4989780;28;20531;-49
2021/12/04 06:45:12;;;;;;;144.25;30.35;;;4.20;99.90;;;;;;5007395;28;20386;-50
2021/12/04 06:47:45;;;;;;;145.05;30.38;;;4.20;99.90;;;;;;5007673;28;20056;-49
2021/12/04 06:50:29;;;;;;;132.40;28.85;;;4.30;99.90;;;;;;4994901;28;20045;-49
2021/12/04 06:52:57;;;;;;;;;;;4.30;99.90;;;;;;5015613;28;20054;-49
2021/12/04 06:55:28;;;;;;;169.52;31.48;;;4.20;99.90;;;;;;5008050;28;20034;-49
2021/12/04 06:57:54;;;;;;;126.72;29.55;;;4.20;99.90;;;;;;5007333;28;20057;-49
2021/12/04 07:00:20;;;;;;;162.77;31.20;;;4.20;99.90;;;;;;5021791;28;20630;-48
2021/12/04 07:02:46;;;;;;;159.15;30.88;;;4.20;99.90;;;;;;5004783;28;20046;-48
2021/12/04 07:05:12;;;;;;;155.77;30.17;;;4.20;99.90;;;;;;5008642;28;20050;-49
2021/12/04 07:07:37;;;;;;;163.77;31.55;;;4.20;99.90;;;;;;5004842;28;20049;-50
2021/12/04 07:10:04;;;;;;;160.00;32.00;;;4.20;99.90;;;;;;5009684;28;20450;-50
2021/12/04 07:12:30;;;;;;;206.98;34.33;;;4.20;99.90;;;;;;4995449;28;20481;-49
2021/12/04 07:14:55;;;;;;;135.90;30.08;;;4.20;99.90;;;;;;5006246;28;20220;-48
2021/12/04 07:17:21;;;;;;;165.75;32.42;;;4.20;99.90;;;;;;5015231;28;20045;-49
2021/12/04 07:19:47;;;;;;;161.18;31.73;;;4.20;99.90;;;;;;5006806;28;20471;-49
2021/12/04 07:22:13;;;;;;;131.70;29.58;;;4.20;99.90;;;;;;5010935;28;20067;-49
2021/12/04 07:24:42;;;;;;;164.27;31.38;;;4.20;99.90;;;;;;5000813;28;20053;-49
2021/12/04 07:27:07;;;;;;;131.32;30.33;;;4.20;99.90;;;;;;5004119;28;20057;-53
2021/12/04 07:29:33;;;;;;;153.48;30.33;;;4.20;99.90;;;;;;5020270;28;20054;-50
2021/12/04 07:31:59;;;;;;;136.60;27.70;;;4.30;99.90;;;;;;5007635;28;20515;-49
2021/12/04 07:34:25;;;;;;;147.10;29.60;;;4.20;99.90;;;;;;5005384;28;20045;-51
2021/12/04 07:36:51;;;;;;;144.25;30.55;;;4.30;99.90;;;;;;5025330;28;20368;-49
2021/12/04 07:39:16;;;;;;;129.77;29.02;;;4.30;99.90;;;;;;5005093;28;20096;-51
2021/12/04 07:41:45;;;;;;;154.07;29.58;;;4.30;99.90;;;;;;5013218;28;20046;-50
2021/12/04 07:44:11;;;;;;;166.68;32.83;;;4.20;99.90;;;;;;5021725;28;20049;-48
2021/12/04 07:46:39;;;;;;;163.25;33.15;;;4.20;99.90;;;;;;5022129;28;20095;-51
2021/12/04 07:49:05;;;;;;;125.70;27.52;;;4.30;99.90;;;;;;5022309;28;20045;-48
2021/12/04 07:51:31;;;;;;;115.47;28.85;;;4.30;99.90;;;;;;5021948;28;20493;-49
2021/12/04 07:53:57;;;;;;;141.02;31.98;;;4.30;99.90;;;;;;5021110;28;20159;-48
2021/12/04 07:56:23;;;;;;;147.10;31.38;;;4.30;99.90;;;;;;5022142;28;20079;-50
2021/12/04 07:58:49;;;;;;;146.13;30.65;;;4.30;99.90;;;;;;5011606;28;20176;-49
2021/12/04 08:01:15;;;;;;;141.05;31.17;;;4.30;99.90;;;;;;5011050;28;20054;-48
2021/12/04 08:03:41;;;;;;;137.40;30.65;;;4.30;99.90;;;;;;5010493;28;20052;-52
2021/12/04 08:06:07;;;;;;;152.50;30.85;;;4.30;99.90;;;;;;5020350;28;20045;-51
2021/12/04 08:08:34;;;;;;;140.45;30.63;;;4.30;99.90;;;;;;5006833;28;20428;-48
2021/12/04 08:10:59;;;;;;;147.40;30.65;;;4.30;99.90;;;;;;5004358;28;20416;-48
2021/12/04 08:13:25;;;;;;;154.77;30.60;;;4.30;99.90;;;;;;4987849;28;20116;-49
2021/12/04 08:15:51;;;;;;;141.18;30.63;;;4.30;99.90;;;;;;5014282;28;20081;-48
2021/12/04 08:18:17;;;;;;;161.43;32.33;;;4.30;99.90;;;;;;5013375;28;20130;-48
2021/12/04 08:20:44;;;;;;;134.60;30.38;;;4.30;99.90;;;;;;5012355;28;20068;-49
2021/12/04 08:23:10;;;;;;;125.68;29.30;;;4.30;99.90;;;;;;5008267;28;20049;-51
2021/12/04 08:25:37;;;;;;;137.85;31.17;;;4.30;99.90;;;;;;5011643;28;20053;-48
2021/12/04 08:28:04;;;;;;;151.40;31.90;;;4.30;99.90;;;;;;5009262;28;20049;-50
2021/12/04 08:30:33;;;;;;;155.52;31.70;;;4.30;99.90;;;;;;5020759;28;20060;-48
2021/12/04 08:32:59;;;;;;;138.82;30.63;;;4.30;99.90;;;;;;5006689;28;20169;-48
2021/12/04 08:35:28;;;;;;;131.20;30.92;;;4.30;99.90;;;;;;5019573;28;20056;-50
2021/12/04 08:37:58;;;;;;;118.75;28.25;;;4.30;99.90;;;;;;5021764;28;20167;-49
2021/12/04 08:40:25;;;;;;;151.60;30.77;;;4.30;99.90;;;;;;5011889;28;20045;-48
2021/12/04 08:42:51;;;;;;;139.75;30.65;;;4.40;99.90;;;;;;5016463;28;20053;-48
2021/12/04 08:45:17;;;;;;;136.48;30.30;;;4.40;99.90;;;;;;5021256;28;20049;-50
2021/12/04 08:47:44;;;;;;;123.03;29.90;;;4.40;99.90;;;;;;5015725;28;20448;-51
2021/12/04 08:50:14;;;;;;;146.82;31.13;;;4.40;99.90;;;;;;5018095;28;20746;-52
2021/12/04 08:52:40;;;;;;;138.70;31.30;;;4.40;99.90;;;;;;5022129;28;20049;-53
2021/12/04 08:55:07;;;;;;;137.63;29.95;;;4.40;99.90;;;;;;5009941;28;20042;-51
2021/12/04 08:57:34;;;;;;;146.05;30.30;;;4.40;99.90;;;;;;5006166;28;20520;-48
2021/12/04 09:00:00;;;;;;;125.68;30.05;;;4.40;99.90;;;;;;5009579;28;20050;-50
2021/12/04 09:02:26;;;;;;;120.97;30.23;;;4.40;99.90;;;;;;5007531;28;20045;-50
2021/12/04 09:04:54;;;;;;;120.15;30.10;;;4.40;99.90;;;;;;5013498;28;20084;-51
2021/12/04 09:07:20;;;;;;;120.82;29.55;;;4.40;99.90;;;;;;5014487;28;20057;-50
2021/12/04 09:09:47;;;;;;;117.55;28.33;;;4.40;99.90;;;;;;5024458;28;20567;-49
2021/12/04 09:12:14;;;;;;;111.97;27.83;;;4.40;99.90;;;;;;5024560;28;20045;-48
2021/12/04 09:14:42;;;;;;;130.15;28.98;;;4.40;99.90;;;;;;5023791;28;20590;-49
2021/12/04 09:17:11;;;;;;;105.43;29.77;;;4.40;99.90;;;;;;5025464;28;20141;-50
2021/12/04 09:19:37;;;;;;;102.15;28.58;;;4.40;99.90;;;;;;5022424;28;20053;-49
2021/12/04 09:22:07;;;;;;;118.70;28.30;;;4.40;99.90;;;;;;5012272;28;20169;-49
2021/12/04 09:24:44;;;;;;;113.65;30.65;;;4.40;99.90;;;;;;5022229;28;20131;-48
2021/12/04 09:32:25;;;;;;;102.93;27.88;;;4.50;99.90;;;;;;5024730;28;20053;-48
2021/12/04 09:59:07;;;;;;;98.53;27.38;;;4.60;99.90;;;;;;5021791;28;20057;-51
2021/12/04 10:19:32;;;;;;;79.25;25.48;;;4.60;99.90;;;;;;4943038;28;20057;-49
2021/12/04 10:32:23;;;;;;;95.00;28.02;;;4.60;99.90;;;;;;4918366;29;20052;-48
2021/12/04 10:33:37;;;;;;;80.32;27.33;;;4.70;99.90;;;;;;4912291;29;20091;-50
2021/12/04 10:36:03;;;;;;;75.35;27.15;;;4.70;99.90;;;;;;4867719;29;20500;-50
2021/12/04 10:38:37;;;;;;;64.55;23.92;;;4.70;99.90;;;;;;4885403;29;20588;-49
2021/12/04 10:41:03;;;;;;;74.72;25.63;;;4.70;99.90;;;;;;4885461;29;20060;-48
2021/12/04 10:43:31;;;;;;;70.63;25.75;;;4.70;99.90;;;;;;4885931;29;20073;-49
2021/12/04 10:46:07;;;;;;;65.45;25.48;;;4.70;99.90;;;;;;4882935;29;20056;-50
2021/12/04 10:48:34;;;;;;;62.65;23.50;;;4.60;99.90;;;;;;4864435;29;20582;-49
2021/12/04 10:53:49;;;;;;;63.53;24.55;;;4.70;99.90;;;;;;4940131;29;20059;-48
2021/12/04 10:56:29;;;;;;;59.17;23.35;;;4.70;99.90;;;;;;4936535;29;20066;-49
2021/12/04 11:04:52;;;;;;;57.80;22.55;;;4.70;99.90;;;;;;4943304;29;20067;-48
2021/12/04 11:27:08;;;;;;;63.55;25.98;;;4.80;99.90;;;;;;4995634;28;20451;-49
2021/12/04 11:40:11;;;;;;;61.83;26.20;;;4.80;99.90;;;;;;4999648;28;20162;-49
2021/12/04 11:42:42;;;;;;;63.55;26.02;;;4.80;99.90;;;;;;4999718;28;20062;-50
2021/12/04 11:46:01;;;;;;;53.33;23.58;;;4.80;99.90;;;;;;4999958;28;20149;-50
2021/12/04 11:48:07;;;;;;;55.15;25.40;;;4.80;99.90;;;;;;4997288;28;20524;-49
2021/12/04 11:50:39;;;;;;;59.85;25.13;;;4.80;99.90;;;;;;4998899;28;20129;-50
2021/12/04 11:53:16;;;;;;;53.35;22.90;;;4.80;99.90;;;;;;4983328;28;20050;-49
2021/12/04 11:55:46;;;;;;;63.03;25.45;;;4.90;99.90;;;;;;5014234;28;20455;-48
2021/12/04 11:58:25;;;;;;;68.70;25.67;;;4.80;99.90;;;;;;5019478;28;20553;-48
2021/12/04 12:00:55;;;;;;;60.00;25.17;;;4.90;99.90;;;;;;5004728;28;20059;-47
2021/12/04 12:03:25;;;;;;;64.75;25.83;;;4.90;99.90;;;;;;5022558;28;20048;-49
2021/12/04 12:06:10;;;;;;;73.03;29.00;;;5.00;99.90;;;;;;5020805;28;20083;-47
2021/12/04 12:08:42;;;;;;;67.70;26.88;;;5.00;99.90;;;;;;5022296;28;20454;-49
2021/12/04 12:11:27;;;;;;;64.35;25.52;;;5.00;99.90;;;;;;5021996;28;20107;-49
2021/12/04 12:14:11;;;;;;;62.55;26.30;;;5.00;99.90;;;;;;5025021;28;20053;-47
2021/12/04 12:16:41;;;;;;;;;;;5.00;99.90;;;;;;5005929;28;20053;-50
2021/12/04 12:19:36;;;;;;;56.47;24.00;;;5.10;99.90;;;;;;5018942;28;20035;-50
2021/12/04 12:22:07;;;;;;;60.33;24.75;;;5.10;99.90;;;;;;5021545;28;20056;-49
2021/12/04 12:27:34;;;;;;;56.35;25.00;;;5.20;99.90;;;;;;4994148;28;20060;-48
2021/12/04 12:36:03;;;;;;;49.97;24.77;;;5.30;99.90;;;;;;5013982;28;20411;-49
2021/12/04 12:38:35;;;;;;;46.30;22.50;;;5.30;99.90;;;;;;5009291;28;20053;-49
2021/12/04 12:41:27;;;;;;;49.28;22.67;;;5.20;99.90;;;;;;5016316;28;20102;-47
2021/12/04 12:43:52;;;;;;;41.67;21.23;;;5.20;99.90;;;;;;4938876;28;20532;-48
2021/12/04 12:46:19;;;;;;;45.58;23.08;;;5.20;99.90;;;;;;4936786;29;20109;-47
2021/12/04 12:48:51;;;;;;;44.50;21.25;;;5.20;99.90;;;;;;4922286;29;20093;-49
2021/12/04 12:51:24;;;;;;;47.97;21.75;;;5.20;99.90;;;;;;4922045;29;20557;-47
2021/12/04 12:53:51;;;;;;;47.22;22.58;;;5.20;99.90;;;;;;4937915;29;20051;-48
2021/12/04 12:56:17;;;;;;;41.25;20.35;;;5.20;99.90;;;;;;4939821;29;20497;-47
2021/12/04 12:58:49;;;;;;;40.88;20.88;;;5.20;99.90;;;;;;4937246;29;20056;-48
2021/12/04 13:13:34;;;;;;;40.92;20.10;;;5.10;99.90;;;;;;4940156;29;20089;-49
2021/12/04 13:16:29;;;;;;;38.80;19.63;;;5.10;99.90;;;;;;4924344;29;20062;-49
2021/12/04 13:19:03;;;;;;;45.90;20.90;;;5.10;99.90;;;;;;4939312;29;20213;-49
2021/12/04 13:21:33;;;;;;;44.50;20.23;;;5.10;99.90;;;;;;4935008;28;20051;-52
2021/12/04 13:23:59;;;;;;;48.67;21.45;;;5.10;99.90;;;;;;4942921;29;20078;-50
2021/12/04 13:26:30;;;;;;;47.15;22.73;;;5.10;99.90;;;;;;4926978;29;20066;-51
2021/12/04 13:28:59;;;;;;;49.47;21.13;;;5.00;99.90;;;;;;4941401;29;20069;-51
2021/12/04 13:31:26;;;;;;;47.25;22.73;;;5.00;99.90;;;;;;4924209;29;20111;-48
2021/12/04 13:33:55;;;;;;;63.63;24.90;;;5.00;99.90;;;;;;4937028;29;20143;-47
2021/12/04 13:36:30;;;;;;;56.83;23.33;;;5.00;99.90;;;;;;4938069;29;20066;-48
2021/12/04 13:39:09;;;;;;;50.38;23.60;;;5.00;99.90;;;;;;4940044;29;20061;-48
2021/12/04 13:41:36;;;;;;;61.47;24.83;;;5.00;99.90;;;;;;4936729;29;20590;-47
2021/12/04 13:44:05;;;;;;;55.05;22.73;;;4.90;99.90;;;;;;4939601;29;20070;-49
2021/12/04 13:46:43;;;;;;;57.63;24.45;;;5.00;99.90;;;;;;4940906;28;20570;-48
2021/12/04 13:49:11;;;;;;;60.60;24.67;;;4.90;99.90;;;;;;4930083;28;20190;-49
2021/12/04 13:51:37;;;;;;;64.28;26.45;;;4.90;99.90;;;;;;5001474;28;20049;-47
2021/12/04 13:54:04;;;;;;;64.45;24.10;;;4.90;99.90;;;;;;4980517;28;20627;-47
2021/12/04 13:56:30;;;;;;;73.05;27.05;;;4.90;99.90;;;;;;5004219;28;20046;-49
2021/12/04 13:59:00;;;;;;;70.47;25.95;;;4.90;99.90;;;;;;4980472;28;20050;-51
2021/12/04 14:01:27;;;;;;;65.35;25.88;;;4.90;99.90;;;;;;5000881;28;20412;-48
2021/12/04 14:03:58;;;;;;;63.03;25.40;;;4.90;99.90;;;;;;4999044;28;20050;-48
2021/12/04 14:06:25;;;;;;;70.53;27.25;;;4.90;99.90;;;;;;5003037;28;20252;-50
2021/12/04 14:09:06;;;;;;;74.22;25.98;;;4.90;99.90;;;;;;5000305;28;20144;-48
2021/12/04 14:11:35;;;;;;;85.65;29.65;;;4.90;99.90;;;;;;4996410;28;20042;-49
2021/12/04 14:14:17;;;;;;;76.75;26.67;;;4.90;99.90;;;;;;4978496;28;20053;-49
2021/12/04 14:16:46;;;;;;;77.57;27.30;;;4.90;99.90;;;;;;4998447;28;20089;-48
2021/12/04 14:19:16;;;;;;;75.13;26.85;;;4.90;99.90;;;;;;5005289;28;20075;-49
2021/12/04 14:21:52;;;;;;;77.60;28.15;;;4.90;99.90;;;;;;5022987;28;20061;-48
2021/12/04 14:24:30;;;;;;;75.32;26.92;;;4.90;99.90;;;;;;5022654;28;20060;-48
2021/12/04 14:26:59;;;;;;;62.88;25.75;;;4.80;99.90;;;;;;5018557;28;20042;-49
2021/12/04 14:29:34;;;;;;;61.17;23.55;;;4.80;99.90;;;;;;5000553;28;20162;-49
2021/12/04 14:32:00;;;;;;;62.92;24.60;;;4.90;99.90;;;;;;5017619;28;20510;-49
2021/12/04 14:34:30;;;;;;;72.60;25.52;;;4.90;99.90;;;;;;5004848;28;20056;-49
2021/12/04 14:36:59;;;;;;;68.57;25.20;;;4.80;99.90;;;;;;5026498;28;20111;-50
2021/12/04 14:39:26;;;;;;;59.83;24.13;;;4.90;99.90;;;;;;5023986;28;20600;-55
2021/12/04 14:41:52;;;;;;;58.25;24.27;;;4.90;99.90;;;;;;5023927;28;20356;-51
2021/12/04 14:44:17;;;;;;;58.72;24.02;;;4.80;99.90;;;;;;5022890;28;20056;-48
2021/12/04 14:46:44;;;;;;;58.95;25.63;;;4.80;99.90;;;;;;5023565;28;20054;-48
2021/12/04 14:49:11;;;;;;;60.78;25.20;;;4.90;99.90;;;;;;5019879;28;20061;-49
2021/12/04 14:51:37;;;;;;;60.65;24.33;;;4.80;99.90;;;;;;5020773;28;20127;-48
2021/12/04 14:54:03;;;;;;;62.10;23.70;;;4.80;99.90;;;;;;5000333;28;20452;-51
2021/12/04 14:56:31;;;;;;;53.85;23.02;;;4.80;99.90;;;;;;5021455;28;20445;-50
2021/12/04 14:58:58;;;;;;;57.33;25.08;;;4.80;99.90;;;;;;5016640;28;20467;-48
2021/12/04 15:01:27;;;;;;;61.25;24.75;;;4.80;99.90;;;;;;4995461;28;20136;-50
2021/12/04 15:04:00;;;;;;;61.65;24.63;;;4.80;99.90;;;;;;5019587;28;20138;-48
2021/12/04 15:06:28;;;;;;;62.40;25.52;;;4.80;99.90;;;;;;5022323;28;20045;-49
2021/12/04 15:08:59;;;;;;;70.75;25.65;;;4.80;99.90;;;;;;5022521;28;20475;-48
2021/12/04 15:11:31;;;;;;;70.47;26.05;;;4.80;99.90;;;;;;5004660;28;20462;-50
2021/12/04 15:14:08;;;;;;;88.72;29.27;;;4.80;99.90;;;;;;4987577;28;20560;-48
2021/12/04 15:16:39;;;;;;;89.18;30.35;;;4.80;99.90;;;;;;5021825;28;20064;-48
2021/12/04 15:19:19;;;;;;;76.20;28.13;;;4.80;99.90;;;;;;5022607;28;20053;-48
2021/12/04 15:22:08;;;;;;;89.03;30.02;;;4.80;99.90;;;;;;5004547;28;20401;-48
2021/12/04 15:24:39;;;;;;;90.50;29.15;;;4.80;99.90;;;;;;5021948;28;20168;-48
2021/12/04 15:27:15;;;;;;;93.53;29.88;;;4.80;99.90;;;;;;5017136;28;20184;-48
2021/12/04 15:29:47;;;;;;;90.35;29.65;;;4.80;99.90;;;;;;5015248;28;20041;-48
2021/12/04 15:32:16;;;;;;;79.07;28.33;;;4.80;99.90;;;;;;4997153;28;20412;-48
2021/12/04 15:34:57;;;;;;;83.75;30.15;;;4.80;99.90;;;;;;5000725;28;20064;-47
2021/12/04 15:37:36;;;;;;;79.32;28.50;;;4.80;99.90;;;;;;5015461;28;20064;-52
2021/12/04 15:40:12;;;;;;;79.72;28.88;;;4.80;99.90;;;;;;5011355;28;20052;-51